2IN2 weather

Gerig's Field
Roanoke, Indiana, United States

Public forecast

Using degrees Fahrenheit for public forecast. Weather courtesy of forecast.io.

METAR (pilot weather report)

Closest report is Fort Wayne International Airport, 8.2 nm (15.2 km) ESE. Retrieved 2019/04/23 17:54 UTC (26 minutes ago):

KFWA 231754Z 29015G21KT 10SM FEW012 FEW021 OVC027 12/08 A2998 RMK AO2 SLP152 T01220083 10183 20117 51023 $

TAF (pilot weather forecast)

Closest forecast is Fort Wayne International Airport, 8.2 nm (15.2 km) ESE. Retrieved 2019/04/23 18:34 UTC (0 seconds ago):

TAF KFWA 231732Z 2318/2418 32013G20KT P6SM FEW010 OVC016 FM232200 30011KT P6SM SCT020 FM240300 VRB03KT P6SM SKC